aviador You're here:

KCNK Decoded Metar

CONCORDIA in KS, USA
Report Time2017-09-23 17:55:00
UTC Time2017-09-23 18:17:40
Flight Rules vfr VFR
Wind180° at 15 Gusting to 22 kt
W.Decomp.*RWY 17: 15.0 kt HW 1.0 kt RCW
RWY 21: 12.1 kt HW 8.8 kt LCW
RWY 12: 8.8 kt HW 12.1 kt RCW
W.Rank180° ranks 1
Current wind is above 180° avg. (12.9)
Visibility9999 m
Phenomena:N/A
Clouds:N/A
Expected CloudBase > 4,400 ft AGL from Temp-Dew spread
CeilingNone
Temp31°C (ISA +19)
Dew Point20°C (52% RH)
Heat Index33.0°C
AAT29.3°C
QNH1014 hPa
Density Alt3,904 ft
Elevation1,467 ft
Report Wrong Elevation
Raw Report
KCNK 231755Z AUTO 18015G22KT 10SM CLR 31/20 A2994 RMK AO2 SLP119
T03060200 10306 20211 50001=

Extra information for KCNK:More info

Metar Taf Metar & Taf Last 4 Metars F.Rules Stats Wind Profile Meteogram Temp Stats Airport Information Weather charts Add Link Nearby VenuesMetar ALERT Operation Metar Decoded Social comments

AIRNAV info for KCNK